KBED/BED METAR and TAF weather

Enter ICAO airport designator
Station Type Date Time Source
KBED METAR 2024/04/15 10:20 UTC NOAA

KBED 151020Z AUTO 00000KT 1/4SM R11/2400VP6000FT FG VV001 04/04 A2974 RMK AO2 T00440039


Station Type Date Time Source
KBED Decoded METAR 2024/04/15 10:20 UTC NOAA

BEDFORD HANSCOM FIELD, MA, United States (KBED) 42-28N 071-18W 50M
Apr 15, 2024 - 06:20 AM EDT / 2024.04.15 1020 UTC
Wind: Calm:0
Visibility: 1/4 mile(s):0
Sky conditions: obscured
Weather: fog
Temperature: 39.9 F (4.4 C)
Dew Point: 39.0 F (3.9 C)
Relative Humidity: 96%
Pressure (altimeter): 29.74 in. Hg (1007 hPa)
ob: KBED 151020Z AUTO 00000KT 1/4SM R11/2400VP6000FT FG VV001 04/04 A2974 RMK AO2 T00440039
cycle: 10

Station Type Date Time Source
KBED TAF 2024/04/15 06:24 UTC NOAA